createdAt,value
2022-09-23T00:00:15.375Z,21.71
2022-09-23T00:02:19.785Z,21.69
2022-09-23T00:04:24.378Z,21.67
2022-09-23T00:06:28.801Z,21.66
2022-09-23T00:08:33.124Z,21.63
2022-09-23T00:10:37.653Z,21.63
2022-09-23T00:12:42.011Z,21.62
2022-09-23T00:14:46.365Z,21.62
2022-09-23T00:16:51.030Z,21.61
2022-09-23T00:18:55.853Z,21.61
2022-09-23T00:21:00.329Z,21.6
2022-09-23T00:23:04.651Z,21.59
2022-09-23T00:25:09.036Z,21.59
2022-09-23T00:27:13.456Z,21.57
2022-09-23T00:29:17.813Z,21.56
2022-09-23T00:31:22.223Z,21.55
2022-09-23T00:33:26.831Z,21.55
2022-09-23T00:35:31.205Z,21.55
2022-09-23T00:37:35.563Z,21.55
2022-09-23T00:39:39.941Z,21.54
2022-09-23T00:41:44.321Z,21.54
2022-09-23T00:43:48.656Z,21.54
2022-09-23T00:45:53.109Z,21.53
2022-09-23T00:47:57.663Z,21.53
2022-09-23T00:50:02.029Z,21.52
2022-09-23T00:52:06.431Z,21.51
2022-09-23T00:54:10.821Z,21.5
2022-09-23T00:56:15.234Z,21.49
2022-09-23T00:58:19.583Z,21.49
2022-09-23T01:00:23.958Z,21.48
2022-09-23T01:02:28.447Z,21.47
2022-09-23T01:04:33.075Z,21.46
2022-09-23T01:06:37.425Z,21.46
2022-09-23T01:08:41.768Z,21.44
2022-09-23T01:10:46.138Z,21.43
2022-09-23T01:12:50.511Z,21.43
2022-09-23T01:14:54.888Z,21.41
2022-09-23T01:16:59.302Z,21.4
2022-09-23T01:19:03.931Z,21.38
2022-09-23T01:21:08.295Z,21.37
2022-09-23T01:23:12.697Z,21.36
2022-09-23T01:25:17.041Z,21.34
2022-09-23T01:27:21.376Z,21.33
2022-09-23T01:29:25.752Z,21.33
2022-09-23T01:31:30.254Z,21.32
2022-09-23T01:33:34.604Z,21.31
2022-09-23T01:35:38.996Z,21.3
2022-09-23T01:37:43.334Z,21.3
2022-09-23T01:39:47.715Z,21.29
2022-09-23T01:41:52.070Z,21.28
2022-09-23T01:43:56.414Z,21.27
2022-09-23T01:46:00.771Z,21.26
2022-09-23T01:48:05.289Z,21.26
2022-09-23T01:50:09.802Z,21.24
2022-09-23T01:52:14.184Z,21.23
2022-09-23T01:54:18.585Z,21.25
2022-09-23T01:56:22.963Z,21.25
2022-09-23T01:58:27.321Z,21.25
2022-09-23T02:00:31.698Z,21.24
2022-09-23T02:02:36.103Z,21.24
2022-09-23T02:04:40.732Z,21.23
2022-09-23T02:06:45.102Z,21.23
2022-09-23T02:08:49.465Z,21.23
2022-09-23T02:10:53.858Z,21.22
2022-09-23T02:12:58.194Z,21.22
2022-09-23T02:15:02.558Z,21.2
2022-09-23T02:17:06.959Z,21.19
2022-09-23T02:19:11.305Z,21.18
2022-09-23T02:21:15.684Z,21.18
2022-09-23T02:23:20.029Z,21.18
2022-09-23T02:25:24.649Z,21.17
2022-09-23T02:27:29.071Z,21.17
2022-09-23T02:29:33.446Z,21.16
2022-09-23T02:31:37.889Z,21.15
2022-09-23T02:33:42.403Z,21.14
2022-09-23T02:35:46.813Z,21.14
2022-09-23T02:37:51.222Z,21.14
2022-09-23T02:39:55.609Z,21.14
2022-09-23T02:41:59.995Z,21.14
2022-09-23T02:44:04.353Z,21.14
2022-09-23T02:46:08.917Z,21.14
2022-09-23T02:48:13.486Z,21.13
2022-09-23T02:50:17.866Z,21.13
2022-09-23T02:52:22.284Z,21.12
2022-09-23T02:54:26.658Z,21.12
2022-09-23T02:56:31.029Z,21.12
2022-09-23T02:58:35.400Z,21.12
2022-09-23T03:00:39.790Z,21.12
2022-09-23T03:02:44.192Z,21.11
2022-09-23T03:04:48.580Z,21.11
2022-09-23T03:06:52.987Z,21.1
2022-09-23T03:08:57.370Z,21.09
2022-09-23T03:11:01.832Z,21.09
2022-09-23T03:13:06.162Z,21.08
2022-09-23T03:15:10.509Z,21.08
2022-09-23T03:17:14.879Z,21.08
2022-09-23T03:19:19.242Z,21.08
2022-09-23T03:21:23.624Z,21.07
2022-09-23T03:23:27.970Z,21.06
2022-09-23T03:25:32.341Z,21.05
2022-09-23T03:27:36.722Z,21.05
2022-09-23T03:29:41.147Z,21.04
2022-09-23T03:31:45.575Z,21.04
2022-09-23T03:33:50.198Z,21.03
2022-09-23T03:35:54.528Z,21.03
2022-09-23T03:37:58.874Z,21.02
2022-09-23T03:40:03.219Z,21.01
2022-09-23T03:42:07.826Z,21.01
2022-09-23T03:44:12.198Z,21
2022-09-23T03:46:16.972Z,20.98
2022-09-23T03:48:21.559Z,20.98
2022-09-23T03:50:25.899Z,20.97
2022-09-23T03:52:30.270Z,20.96
2022-09-23T03:54:34.666Z,20.95
2022-09-23T03:56:39.017Z,20.94
2022-09-23T03:58:43.362Z,20.93
2022-09-23T04:00:47.811Z,20.92
2022-09-23T04:02:52.453Z,20.91
2022-09-23T04:04:56.846Z,20.91
2022-09-23T04:07:01.213Z,20.91
2022-09-23T04:09:05.596Z,20.92
2022-09-23T04:11:09.960Z,20.91
2022-09-23T04:13:14.274Z,20.88
2022-09-23T04:15:18.662Z,20.9
2022-09-23T04:17:23.033Z,20.88
2022-09-23T04:19:27.491Z,20.88
2022-09-23T04:21:31.914Z,20.86
2022-09-23T04:23:36.238Z,20.85
2022-09-23T04:25:40.598Z,20.84
2022-09-23T04:27:44.912Z,20.82
2022-09-23T04:29:49.274Z,20.81
2022-09-23T04:31:53.768Z,20.81
2022-09-23T04:33:58.437Z,20.86
2022-09-23T04:36:02.763Z,20.97
2022-09-23T04:38:07.109Z,21.07
2022-09-23T04:40:11.512Z,21.16
2022-09-23T04:42:16.020Z,21.26
2022-09-23T04:44:20.377Z,21.35
2022-09-23T04:46:24.901Z,21.44
2022-09-23T04:48:29.418Z,21.5
2022-09-23T04:50:33.900Z,21.56
2022-09-23T04:52:38.294Z,21.62
2022-09-23T04:54:42.660Z,21.65
2022-09-23T04:56:46.969Z,21.67
2022-09-23T04:58:51.347Z,21.69
2022-09-23T05:00:55.741Z,21.7
2022-09-23T05:03:07.812Z,21.73
2022-09-23T05:05:12.203Z,21.74
2022-09-23T05:07:16.564Z,21.76
2022-09-23T05:09:20.942Z,21.78
2022-09-23T05:11:25.278Z,21.79
2022-09-23T05:13:29.635Z,21.83
2022-09-23T05:15:34.029Z,21.86
2022-09-23T05:17:38.434Z,21.89
2022-09-23T05:19:42.806Z,21.92
2022-09-23T05:21:47.180Z,21.94
2022-09-23T05:23:51.568Z,21.97
2022-09-23T05:25:55.908Z,21.99
2022-09-23T05:28:00.298Z,22.02
2022-09-23T05:30:04.707Z,22.04
2022-09-23T05:32:09.059Z,22.06
2022-09-23T05:34:13.452Z,22.08
2022-09-23T05:36:17.828Z,22.1
2022-09-23T05:38:22.219Z,22.13
2022-09-23T05:40:26.989Z,22.16
2022-09-23T05:42:31.591Z,22.19
2022-09-23T05:44:35.970Z,22.21
2022-09-23T05:46:40.410Z,22.23
2022-09-23T05:48:45.106Z,22.23
2022-09-23T05:50:49.485Z,22.24
2022-09-23T05:52:53.844Z,22.26
2022-09-23T05:54:58.281Z,22.27
2022-09-23T05:57:04.297Z,22.27
2022-09-23T05:59:09.627Z,22.27
2022-09-23T06:01:14.052Z,22.28
2022-09-23T06:03:18.490Z,22.28
2022-09-23T06:05:23.131Z,22.29
2022-09-23T06:07:27.720Z,22.31
2022-09-23T06:09:36.306Z,22.32
2022-09-23T06:11:40.984Z,22.35
2022-09-23T06:13:45.372Z,22.37
2022-09-23T06:15:49.828Z,22.39
2022-09-23T06:17:54.352Z,22.42
2022-09-23T06:19:58.770Z,22.46
2022-09-23T06:22:03.127Z,22.49
2022-09-23T06:24:07.771Z,22.52
2022-09-23T06:26:14.319Z,22.54
2022-09-23T06:28:18.645Z,22.57
2022-09-23T06:30:23.036Z,22.58
2022-09-23T06:32:27.426Z,22.6
2022-09-23T06:34:37.558Z,22.59
2022-09-23T06:36:55.005Z,22.58
2022-09-23T06:38:59.416Z,22.6
2022-09-23T06:41:03.728Z,22.6
2022-09-23T06:43:08.060Z,22.63
2022-09-23T06:45:12.465Z,22.64
2022-09-23T06:47:16.824Z,22.63
2022-09-23T06:49:21.236Z,22.64
2022-09-23T06:51:25.613Z,22.62
2022-09-23T06:53:30.018Z,22.6
2022-09-23T06:55:34.439Z,22.58
2022-09-23T06:57:38.794Z,22.57
2022-09-23T06:59:43.184Z,22.56
2022-09-23T07:01:47.827Z,22.57
2022-09-23T07:03:52.818Z,22.56
2022-09-23T07:05:57.221Z,22.55
2022-09-23T07:08:01.586Z,22.55
2022-09-23T07:10:05.977Z,22.55
2022-09-23T07:12:10.339Z,22.55
2022-09-23T07:14:14.771Z,22.55
2022-09-23T07:16:19.193Z,22.55
2022-09-23T07:18:23.863Z,22.54
2022-09-23T07:20:28.316Z,22.54
2022-09-23T07:22:32.685Z,22.55
2022-09-23T07:24:40.128Z,22.56
2022-09-23T07:26:45.746Z,22.57
2022-09-23T07:28:50.203Z,22.58
2022-09-23T07:31:00.198Z,22.59
2022-09-23T07:33:17.149Z,22.58
2022-09-23T07:35:36.215Z,22.6
2022-09-23T07:37:40.633Z,22.6
2022-09-23T07:39:44.997Z,22.61
2022-09-23T07:41:49.366Z,22.61
2022-09-23T07:43:53.712Z,22.61
2022-09-23T07:45:58.106Z,22.62
2022-09-23T07:48:02.761Z,22.63
2022-09-23T07:50:07.112Z,22.63
2022-09-23T07:52:11.450Z,22.63
2022-09-23T07:54:15.838Z,22.63
2022-09-23T07:56:20.224Z,22.63
2022-09-23T07:58:24.603Z,22.64
2022-09-23T08:00:29.350Z,22.64
2022-09-23T08:02:33.786Z,22.64
2022-09-23T08:04:38.430Z,22.65
2022-09-23T08:06:42.779Z,22.65
2022-09-23T08:08:51.209Z,22.65
2022-09-23T08:10:57.533Z,22.65
2022-09-23T08:13:01.910Z,22.64
2022-09-23T08:15:06.315Z,22.66
2022-09-23T08:17:10.943Z,22.67
2022-09-23T08:19:15.321Z,22.68
2022-09-23T08:21:19.703Z,22.69
2022-09-23T08:23:24.048Z,22.69
2022-09-23T08:25:29.789Z,22.7
2022-09-23T08:27:38.001Z,22.7
2022-09-23T08:29:42.357Z,22.72
2022-09-23T08:31:46.874Z,22.72
2022-09-23T08:33:51.263Z,22.73
2022-09-23T08:35:55.605Z,22.74
2022-09-23T08:38:00.113Z,22.74
2022-09-23T08:40:04.513Z,22.74
2022-09-23T08:42:09.071Z,22.75
2022-09-23T08:44:13.460Z,22.75
2022-09-23T08:46:17.871Z,22.75
2022-09-23T08:48:22.557Z,22.77
2022-09-23T08:50:26.902Z,22.77
2022-09-23T08:52:31.267Z,22.78
2022-09-23T08:54:35.682Z,22.79
2022-09-23T08:56:40.064Z,22.8
2022-09-23T08:58:44.457Z,22.79
2022-09-23T09:00:48.847Z,22.8
2022-09-23T09:02:53.245Z,22.81
2022-09-23T09:04:58.096Z,22.82
2022-09-23T09:07:18.279Z,22.83
2022-09-23T09:09:41.317Z,22.83
2022-09-23T09:11:48.526Z,22.84
2022-09-23T09:13:53.012Z,22.85
2022-09-23T09:15:57.379Z,22.87
2022-09-23T09:18:01.955Z,22.87
2022-09-23T09:20:06.482Z,22.88
2022-09-23T09:22:10.855Z,22.9
2022-09-23T09:24:15.256Z,22.91
2022-09-23T09:26:19.664Z,22.92
2022-09-23T09:28:24.011Z,22.93
2022-09-23T09:30:28.391Z,22.93
2022-09-23T09:32:32.752Z,22.94
2022-09-23T09:34:37.230Z,22.94
2022-09-23T09:36:41.609Z,22.94
2022-09-23T09:38:45.976Z,22.96
2022-09-23T09:40:50.455Z,22.97
2022-09-23T09:42:55.080Z,22.99
2022-09-23T09:44:59.439Z,22.99
2022-09-23T09:47:03.949Z,23
2022-09-23T09:49:08.482Z,23
2022-09-23T09:51:13.097Z,23.02
2022-09-23T09:53:17.477Z,23.03
2022-09-23T09:55:21.875Z,23.03
2022-09-23T09:57:26.264Z,23.04
2022-09-23T09:59:38.638Z,23.04
2022-09-23T10:01:43.013Z,23.04
2022-09-23T10:03:47.607Z,23.04
2022-09-23T10:05:51.964Z,23.05
2022-09-23T10:07:56.323Z,23.05
2022-09-23T10:10:05.982Z,23.07
2022-09-23T10:12:35.706Z,23.08
2022-09-23T10:14:40.104Z,23.1
2022-09-23T10:16:44.510Z,23.12
2022-09-23T10:18:49.064Z,23.14
2022-09-23T10:20:53.433Z,23.16
2022-09-23T10:22:57.853Z,23.17
2022-09-23T10:25:02.237Z,23.19
2022-09-23T10:27:06.736Z,23.2
2022-09-23T10:29:11.210Z,23.2
2022-09-23T10:31:15.583Z,23.2
2022-09-23T10:33:20.416Z,23.2
2022-09-23T10:35:24.830Z,23.19
2022-09-23T10:37:29.273Z,23.2
2022-09-23T10:39:33.646Z,23.21
2022-09-23T10:41:38.016Z,23.24
2022-09-23T10:43:42.425Z,23.26
2022-09-23T10:45:46.939Z,23.29
2022-09-23T10:47:51.566Z,23.32
2022-09-23T10:49:55.941Z,23.34
2022-09-23T10:52:00.310Z,23.36
2022-09-23T10:54:04.701Z,23.38
2022-09-23T10:56:09.474Z,23.4
2022-09-23T10:58:13.810Z,23.42
2022-09-23T11:00:18.179Z,23.45
2022-09-23T11:02:22.564Z,23.49
2022-09-23T11:04:27.019Z,23.51
2022-09-23T11:06:31.682Z,23.53
2022-09-23T11:08:36.054Z,23.57
2022-09-23T11:10:47.900Z,23.58
2022-09-23T11:12:52.361Z,23.48
2022-09-23T11:14:56.743Z,23.36
2022-09-23T11:17:01.203Z,23.31
2022-09-23T11:19:05.800Z,23.24
2022-09-23T11:21:10.256Z,23.14
2022-09-23T11:23:14.677Z,23.07
2022-09-23T11:25:19.052Z,22.98
2022-09-23T11:27:23.447Z,22.9
2022-09-23T11:29:27.816Z,22.81
2022-09-23T11:31:32.202Z,22.73
2022-09-23T11:33:36.724Z,22.64
2022-09-23T11:35:41.117Z,22.58
2022-09-23T11:37:45.493Z,22.6
2022-09-23T11:39:49.871Z,22.54
2022-09-23T11:41:54.213Z,22.51
2022-09-23T11:43:58.609Z,22.54
2022-09-23T11:46:03.358Z,22.62
2022-09-23T11:48:08.052Z,22.75
2022-09-23T11:50:12.532Z,22.86
2022-09-23T11:52:16.939Z,22.98
2022-09-23T11:54:21.327Z,23.06
2022-09-23T11:56:33.242Z,23.16
2022-09-23T11:58:47.430Z,23.24
2022-09-23T12:01:09.370Z,23.33
2022-09-23T12:03:13.877Z,23.38
2022-09-23T12:05:18.893Z,23.44
2022-09-23T12:07:23.804Z,23.5
2022-09-23T12:09:47.505Z,23.55
2022-09-23T12:12:03.379Z,23.63
2022-09-23T12:14:07.865Z,23.67
2022-09-23T12:16:12.403Z,23.71
2022-09-23T12:18:20.895Z,23.74
2022-09-23T12:20:27.296Z,23.77
2022-09-23T12:22:31.680Z,23.8
2022-09-23T12:24:36.092Z,23.81
2022-09-23T12:26:40.434Z,23.84
2022-09-23T12:28:44.799Z,23.87
2022-09-23T12:30:49.486Z,23.9
2022-09-23T12:32:54.182Z,23.93
2022-09-23T12:34:58.583Z,23.94
2022-09-23T12:37:02.935Z,23.96
2022-09-23T12:39:07.362Z,24.02
2022-09-23T12:41:11.824Z,24.04
2022-09-23T12:43:16.152Z,24.06
2022-09-23T12:45:20.582Z,24.07
2022-09-23T12:47:24.961Z,24.07
2022-09-23T12:49:29.402Z,24.07
2022-09-23T12:51:33.767Z,24.07
2022-09-23T12:53:38.178Z,24.07
2022-09-23T12:55:42.770Z,24.08
2022-09-23T12:57:47.150Z,24.08
2022-09-23T12:59:51.568Z,24.1
2022-09-23T13:01:56.132Z,24.11
2022-09-23T13:04:01.016Z,24.13
2022-09-23T13:06:06.135Z,24.14
2022-09-23T13:08:10.562Z,24.15
2022-09-23T13:10:15.068Z,24.16
2022-09-23T13:12:19.497Z,24.17
2022-09-23T13:14:27.473Z,24.18
2022-09-23T13:16:32.319Z,24.18
2022-09-23T13:18:37.115Z,24.19
2022-09-23T13:20:41.585Z,24.2
2022-09-23T13:22:46.027Z,24.2
2022-09-23T13:24:50.403Z,24.2
2022-09-23T13:26:54.912Z,24.21
2022-09-23T13:28:59.401Z,24.21
2022-09-23T13:31:03.884Z,24.22
2022-09-23T13:33:08.518Z,24.21
2022-09-23T13:35:12.935Z,24.22
2022-09-23T13:37:21.571Z,24.22
2022-09-23T13:39:26.719Z,24.22
2022-09-23T13:41:31.160Z,24.21
2022-09-23T13:43:40.332Z,24.21
2022-09-23T13:45:45.745Z,24.2
2022-09-23T13:47:50.447Z,24.2
2022-09-23T13:49:54.942Z,24.2
2022-09-23T13:51:59.422Z,24.2
2022-09-23T13:54:03.866Z,24.2
2022-09-23T13:56:08.390Z,24.19
2022-09-23T13:58:12.860Z,24.2
2022-09-23T14:00:17.274Z,24.23
2022-09-23T14:02:21.808Z,24.25
2022-09-23T14:04:26.516Z,24.27
2022-09-23T14:06:31.097Z,24.29
2022-09-23T14:08:35.730Z,24.26
2022-09-23T14:10:40.145Z,24.16
2022-09-23T14:12:44.573Z,23.98
2022-09-23T14:14:49.079Z,23.82
2022-09-23T14:16:53.793Z,23.69
2022-09-23T14:18:58.577Z,23.56
2022-09-23T14:21:03.053Z,23.47
2022-09-23T14:23:07.480Z,23.4
2022-09-23T14:25:11.941Z,23.32
2022-09-23T14:27:16.471Z,23.27
2022-09-23T14:29:20.918Z,23.18
2022-09-23T14:31:25.357Z,23.1
2022-09-23T14:33:29.929Z,23.06
2022-09-23T14:35:34.348Z,23.04
2022-09-23T14:37:38.755Z,23.1
2022-09-23T14:39:43.146Z,23.17
2022-09-23T14:41:47.564Z,23.24
2022-09-23T14:43:51.955Z,23.35
2022-09-23T14:45:56.485Z,23.43
2022-09-23T14:48:01.301Z,23.53
2022-09-23T14:50:05.750Z,23.61
2022-09-23T14:52:10.215Z,23.67
2022-09-23T14:54:14.648Z,23.73
2022-09-23T14:56:19.095Z,23.77
2022-09-23T14:58:23.492Z,23.83
2022-09-23T15:00:27.951Z,23.87
2022-09-23T15:02:32.361Z,23.91
2022-09-23T15:04:36.896Z,23.93
2022-09-23T15:06:41.413Z,23.96
2022-09-23T15:08:45.840Z,23.99
2022-09-23T15:10:50.291Z,24.01
2022-09-23T15:12:54.738Z,24.03
2022-09-23T15:14:59.160Z,24.05
2022-09-23T15:17:03.629Z,24.06
2022-09-23T15:19:08.051Z,24.08
2022-09-23T15:21:12.504Z,24.09
2022-09-23T15:23:17.003Z,24.11
2022-09-23T15:25:21.415Z,24.13
2022-09-23T15:27:25.863Z,24.13
2022-09-23T15:29:30.425Z,24.17
2022-09-23T15:31:34.827Z,24.18
2022-09-23T15:33:39.636Z,24.18
2022-09-23T15:35:44.445Z,24.2
2022-09-23T15:37:48.864Z,24.2
2022-09-23T15:39:53.340Z,24.21
2022-09-23T15:41:57.755Z,24.23
2022-09-23T15:44:02.214Z,24.24
2022-09-23T15:46:06.830Z,24.26
2022-09-23T15:48:11.578Z,24.28
2022-09-23T15:50:15.966Z,24.3
2022-09-23T15:52:20.396Z,24.3
2022-09-23T15:54:24.829Z,24.27
2022-09-23T15:56:29.259Z,24.27
2022-09-23T15:58:33.672Z,24.28
2022-09-23T16:00:38.159Z,24.3
2022-09-23T16:02:42.888Z,24.3
2022-09-23T16:04:47.522Z,24.33
2022-09-23T16:06:51.928Z,24.36
2022-09-23T16:08:56.413Z,24.39
2022-09-23T16:11:00.837Z,24.41
2022-09-23T16:13:05.363Z,24.41
2022-09-23T16:15:09.794Z,24.43
2022-09-23T16:17:14.289Z,24.44
2022-09-23T16:19:18.785Z,24.46
2022-09-23T16:21:23.190Z,24.47
2022-09-23T16:23:27.645Z,24.48
2022-09-23T16:25:32.233Z,24.49
2022-09-23T16:27:36.769Z,24.5
2022-09-23T16:29:41.154Z,24.5
2022-09-23T16:31:45.573Z,24.52
2022-09-23T16:33:50.217Z,24.53
2022-09-23T16:35:54.596Z,24.54
2022-09-23T16:37:58.971Z,24.55
2022-09-23T16:40:03.409Z,24.57
2022-09-23T16:42:08.047Z,24.57
2022-09-23T16:44:12.568Z,24.57
2022-09-23T16:46:17.181Z,24.6
2022-09-23T16:48:22.017Z,24.61
2022-09-23T16:50:26.425Z,24.63
2022-09-23T16:52:30.854Z,24.65
2022-09-23T16:54:35.302Z,24.65
2022-09-23T16:56:39.756Z,24.67
2022-09-23T16:58:44.145Z,24.68
2022-09-23T17:00:48.731Z,24.69
2022-09-23T17:02:53.484Z,24.69
2022-09-23T17:04:58.145Z,24.71
2022-09-23T17:07:03.008Z,24.72
2022-09-23T17:09:07.439Z,24.72
2022-09-23T17:11:12.026Z,24.72
2022-09-23T17:13:16.446Z,24.73
2022-09-23T17:15:20.860Z,24.74
2022-09-23T17:17:25.247Z,24.75
2022-09-23T17:19:29.711Z,24.72
2022-09-23T17:21:34.079Z,24.69
2022-09-23T17:23:38.425Z,24.66
2022-09-23T17:25:42.848Z,24.63
2022-09-23T17:27:47.205Z,24.63
2022-09-23T17:29:51.607Z,24.6
2022-09-23T17:31:56.046Z,24.58
2022-09-23T17:34:00.774Z,24.56
2022-09-23T17:36:05.199Z,24.58
2022-09-23T17:38:09.624Z,24.58
2022-09-23T17:40:14.295Z,24.58
2022-09-23T17:42:19.187Z,24.58
2022-09-23T17:44:23.527Z,24.57
2022-09-23T17:46:27.937Z,24.56
2022-09-23T17:48:32.388Z,24.58
2022-09-23T17:50:36.860Z,24.58
2022-09-23T17:52:41.221Z,24.59
2022-09-23T17:54:45.624Z,24.59
2022-09-23T17:56:50.032Z,24.6
2022-09-23T17:58:54.429Z,24.6
2022-09-23T18:00:58.934Z,24.62
2022-09-23T18:03:03.609Z,24.62
2022-09-23T18:05:08.053Z,24.62
2022-09-23T18:07:12.596Z,24.59
2022-09-23T18:09:17.033Z,24.57
2022-09-23T18:11:21.633Z,24.57
2022-09-23T18:13:26.037Z,24.56
2022-09-23T18:15:30.863Z,24.56
2022-09-23T18:17:35.445Z,24.57
2022-09-23T18:19:40.533Z,24.59
2022-09-23T18:21:45.232Z,24.59
2022-09-23T18:23:49.754Z,24.6
2022-09-23T18:25:54.236Z,24.62
2022-09-23T18:27:58.861Z,24.65
2022-09-23T18:30:03.233Z,24.66
2022-09-23T18:32:11.071Z,24.69
2022-09-23T18:34:18.208Z,24.75
2022-09-23T18:36:23.032Z,24.75
2022-09-23T18:38:27.615Z,24.72
2022-09-23T18:40:32.130Z,24.69
2022-09-23T18:42:36.717Z,24.65
2022-09-23T18:44:41.214Z,24.65
2022-09-23T18:46:45.722Z,24.63
2022-09-23T18:48:50.048Z,24.67
2022-09-23T18:50:54.945Z,24.63
2022-09-23T18:52:59.444Z,24.43
2022-09-23T18:55:04.106Z,24.21
2022-09-23T18:57:08.667Z,23.94
2022-09-23T18:59:13.255Z,23.62
2022-09-23T19:01:18.420Z,23.4
2022-09-23T19:03:23.209Z,23.23
2022-09-23T19:05:28.354Z,23.1
2022-09-23T19:07:33.267Z,23.06
2022-09-23T19:09:38.583Z,23.08
2022-09-23T19:11:43.406Z,23.16
2022-09-23T19:13:48.206Z,23.23
2022-09-23T19:15:52.839Z,23.33
2022-09-23T19:17:57.573Z,23.41
2022-09-23T19:20:02.199Z,23.46
2022-09-23T19:22:06.759Z,23.46
2022-09-23T19:24:11.736Z,23.45
2022-09-23T19:26:16.472Z,23.44
2022-09-23T19:28:21.171Z,23.44
2022-09-23T19:30:25.707Z,23.49
2022-09-23T19:32:30.155Z,23.53
2022-09-23T19:34:34.674Z,23.55
2022-09-23T19:36:39.397Z,23.55
2022-09-23T19:38:43.816Z,23.52
2022-09-23T19:40:49.966Z,23.54
2022-09-23T19:42:55.033Z,23.53
2022-09-23T19:45:00.253Z,23.55
2022-09-23T19:47:05.233Z,23.54
2022-09-23T19:49:09.839Z,23.55
2022-09-23T19:51:14.478Z,23.54
2022-09-23T19:53:18.858Z,23.53
2022-09-23T19:55:27.356Z,23.53
2022-09-23T19:57:32.284Z,23.51
2022-09-23T19:59:36.738Z,23.5
2022-09-23T20:01:41.154Z,23.49
2022-09-23T20:03:45.942Z,23.47
2022-09-23T20:05:50.654Z,23.46
2022-09-23T20:07:55.055Z,23.45
2022-09-23T20:09:59.500Z,23.45
2022-09-23T20:12:03.983Z,23.45
2022-09-23T20:14:08.593Z,23.44
2022-09-23T20:16:13.256Z,23.4
2022-09-23T20:18:18.101Z,23.4
2022-09-23T20:20:22.544Z,23.4
2022-09-23T20:22:30.921Z,23.39
2022-09-23T20:24:37.339Z,23.38
2022-09-23T20:26:41.812Z,23.38
2022-09-23T20:28:46.402Z,23.4
2022-09-23T20:30:50.811Z,23.39
2022-09-23T20:32:55.227Z,23.4
2022-09-23T20:34:59.649Z,23.4
2022-09-23T20:37:04.046Z,23.43
2022-09-23T20:39:08.480Z,23.45
2022-09-23T20:41:13.012Z,23.44
2022-09-23T20:43:17.404Z,23.41
2022-09-23T20:45:21.883Z,23.41
2022-09-23T20:47:26.244Z,23.39
2022-09-23T20:49:30.704Z,23.38
2022-09-23T20:51:35.132Z,23.37
2022-09-23T20:53:39.503Z,23.36
2022-09-23T20:55:43.907Z,23.33
2022-09-23T20:57:48.278Z,23.29
2022-09-23T20:59:52.683Z,23.27
2022-09-23T21:01:57.108Z,23.27
2022-09-23T21:04:01.776Z,23.25
2022-09-23T21:06:06.200Z,23.24
2022-09-23T21:08:10.566Z,23.23
2022-09-23T21:10:15.002Z,23.22
2022-09-23T21:12:19.423Z,23.2
2022-09-23T21:14:23.787Z,23.2
2022-09-23T21:16:28.266Z,23.2
2022-09-23T21:18:33.016Z,23.18
2022-09-23T21:20:37.423Z,23.19
2022-09-23T21:22:41.814Z,23.18
2022-09-23T21:25:25.546Z,23.16
2022-09-23T21:27:33.572Z,23.13
2022-09-23T21:29:37.988Z,23.13
2022-09-23T21:31:42.497Z,23.13
2022-09-23T21:33:47.312Z,23.13
2022-09-23T21:35:51.712Z,23.15
2022-09-23T21:37:56.113Z,23.13
2022-09-23T21:40:00.504Z,23.14
2022-09-23T21:42:04.964Z,23.13
2022-09-23T21:44:09.505Z,23.12
2022-09-23T21:46:14.276Z,23.1
2022-09-23T21:48:19.019Z,23.1
2022-09-23T21:50:23.386Z,23.1
2022-09-23T21:52:27.852Z,23.09
2022-09-23T21:54:32.226Z,23.1
2022-09-23T21:56:36.585Z,23.12
2022-09-23T21:58:41.072Z,23.1
2022-09-23T22:00:45.504Z,23.09
2022-09-23T22:02:50.106Z,23.11
2022-09-23T22:04:54.476Z,23.1
2022-09-23T22:06:58.885Z,23.09
2022-09-23T22:09:03.275Z,23.09
2022-09-23T22:11:07.731Z,23.08
2022-09-23T22:13:13.118Z,23.08
2022-09-23T22:15:17.685Z,23.09
2022-09-23T22:17:22.075Z,23.08
2022-09-23T22:19:26.456Z,23.08
2022-09-23T22:21:30.807Z,23.07
2022-09-23T22:23:35.185Z,23.08
2022-09-23T22:25:39.536Z,23.08
2022-09-23T22:27:43.912Z,23.07
2022-09-23T22:29:48.273Z,23.04
2022-09-23T22:31:52.678Z,23.04
2022-09-23T22:33:57.375Z,23.02
2022-09-23T22:36:01.711Z,23.01
2022-09-23T22:38:06.191Z,23
2022-09-23T22:40:10.705Z,23
2022-09-23T22:42:15.311Z,23.01
2022-09-23T22:44:19.690Z,23.01
2022-09-23T22:46:24.180Z,22.99
2022-09-23T22:48:28.723Z,22.97
2022-09-23T22:50:33.120Z,22.96
2022-09-23T22:52:37.563Z,22.96
2022-09-23T22:54:41.881Z,22.95
2022-09-23T22:56:46.261Z,22.94
2022-09-23T22:58:50.657Z,22.93
2022-09-23T23:00:55.084Z,22.92
2022-09-23T23:02:59.463Z,22.91
2022-09-23T23:05:03.819Z,22.9
2022-09-23T23:07:08.279Z,22.92
2022-09-23T23:09:12.625Z,22.91
2022-09-23T23:11:17.085Z,22.92
2022-09-23T23:13:21.471Z,22.91
2022-09-23T23:15:25.830Z,22.9
2022-09-23T23:17:30.265Z,22.89
2022-09-23T23:19:34.615Z,22.88
2022-09-23T23:21:39.037Z,22.88
2022-09-23T23:23:43.434Z,22.89
2022-09-23T23:25:47.792Z,22.88
2022-09-23T23:27:52.158Z,22.86
2022-09-23T23:29:56.498Z,22.85
2022-09-23T23:32:00.879Z,22.83
2022-09-23T23:34:05.263Z,22.84
2022-09-23T23:36:09.679Z,22.84
2022-09-23T23:38:14.080Z,22.83
2022-09-23T23:40:18.531Z,22.83
2022-09-23T23:42:23.137Z,22.83
2022-09-23T23:44:27.507Z,22.79
2022-09-23T23:46:31.903Z,22.78
2022-09-23T23:48:36.588Z,22.78
2022-09-23T23:50:40.935Z,22.78
2022-09-23T23:52:45.292Z,22.77
2022-09-23T23:54:49.685Z,22.77
2022-09-23T23:56:54.020Z,22.77
2022-09-23T23:58:58.381Z,22.75
